Camas Valley, Oregon
Current Conditions -  °F | °C
As of 7:53 AM on Thursday 23 Oct 2014 (Local Time) from KRBG Reporting Station
Light Rain Light Rain  
Wind Chill: 59°   Ceiling: 4500
Heat Index: 59°   Visibility: 4mi
Dew Point: 55°   Wind: 3mph
Humidity: 87%   Direction: 150°SSE
Pressure: 29.86"   Gusts: NA
Location:  43.03°N, 123.68°W
Report Text: KRBG 231453Z AUTO 15003KT 4SM -RA BR FEW035 BKN045 OVC075 15/13 A2986 RMK AO2 RAB46 SLP112 P0001 60004 T01500128 53013
Loading
Personal Weather Stations






























Interactive Weather Map
Tropical Storm Tracking
New forecast layout! Learn more

10-Day Weather Forecast

Advertisements
Track Severe Weather on mobile